Pagrindinis puslapis
METAR-TAF:

METAR-TAF

Oro uostai :

Orhusas, Danija

platuma: 56-18N, ilguma: 010-37E, Aukštis: 23 m

Dabartinis oras

Ataskaita buvo paskelbta 33 minutes, ne 09:50 UTC
Vėjas 7 kt iš Šiaurės, svyruoja nuo Šiaurės/Šiaurės Vakarų ir Šiaurės Rytų
Temperatūra 0°C
Drėgmė 100%
Slėgis 1007 hPa
Matomumas: 3800 m
sniegas

METAR: EKAH 070950Z AUTO 01007KT 340V040 3800 -SN BKN004/// 00/00 Q1007

Laikas: 11:23 (10:23 UTC)

Prognozė

Ataskaita buvo paskelbta 28 minutes, ne 09:55 UTC
Prognozė galioja nuo 07 metu 06 UTC su 08 metu 06 UTC
Vėjas 8 kt iš Vakarų/Šiaurės Vakarų
Matomumas 10 km arba daugiau
Su prošvaistėmis ne aukštis 2500 ft
Laikinai
nuo 07 metu 09 UTC su 07 metu 15 UTC
Matomumas: 1500 m
Su prošvaistėmis ne aukštis 400 ft
Su prošvaistėmis ne aukštis 1500 ft, Liūtiniai kamuoliniai debesys.
sniegas
Tikimybė 40%
nuo 07 metu 23 UTC su 08 metu 06 UTC
Matomumas: 2000 m
Rūkas lopais

TAF: EKAH 070955Z 0706/0806 30008KT 9999 BKN025 TEMPO 0709/0715 1500 SHSN BKN004 BKN015CB PROB40 0723/0806 2000 BCFG

Orai ataskaitas ir orų prognozės (METAR, TAF).

turimą stotys yra geltonos ir raudonos taškus žemėlapyje.

Perkelti pele per norėdami pamatyti stoties vardą.

Tada spustelėkite, norėdami matyti oro stebėjimo ir prognozės.

Norėdami pakeisti žemėlapį: spustelėkite ant žalios mygtukų su juodo kryžiaus žemyn,; žalią mygtuką su brūkšneliu, jei norite nutolinti; arba žalių rodyklių gretimoms žemėlapius.


METAR-TAF: